Time;durP1;ratioP1;P1;durP2;ratioP2;P2;SDS_P1;SDS_P2;PMS_P1;PMS_P2;Temp;Humidity;BMP_temperature;BMP_pressure;BME280_temperature;BME280_humidity;BME280_pressure;Samples;Min_cycle;Max_cycle;Signal;HPM_P1;HPM_P2
2022/01/20 00:08:50;;;;;;;24.30;15.20;;;;;;;-0.89;82.94;98833.11;445879;1268;142409;-62
2022/01/20 00:29:30;;;;;;;21.10;15.70;;;;;;;-0.74;82.59;98795.20;433006;1268;142410;-64
2022/01/20 00:39:36;;;;;;;21.90;15.30;;;;;;;-0.68;82.59;98776.13;430217;1268;145063;-56
2022/01/20 00:49:42;;;;;;;21.80;15.10;;;;;;;-0.66;82.43;98753.89;440080;1267;143388;-57
2022/01/20 00:59:47;;;;;;;19.30;13.20;;;;;;;-0.59;82.25;98744.39;447957;1266;141237;-57
2022/01/20 01:09:53;;;;;;;24.80;14.10;;;;;;;-0.52;82.57;98736.77;447278;1267;143237;-57
2022/01/20 01:30:40;;;;;;;25.00;14.90;;;;;;;-0.44;82.97;98726.35;429759;1268;142272;-55
2022/01/20 01:40:46;;;;;;;20.70;14.60;;;;;;;-0.49;83.41;98711.75;448034;1268;142486;-57
2022/01/20 01:50:52;;;;;;;23.60;17.30;;;;;;;-0.62;84.34;98680.01;447957;1267;141943;-58
2022/01/20 02:00:59;;;;;;;20.40;13.90;;;;;;;-0.68;84.80;98668.02;436719;1268;189694;-56
2022/01/20 02:21:45;;;;;;;19.60;13.90;;;;;;;-0.72;85.76;98645.11;442916;1268;141639;-59
2022/01/20 02:31:55;;;;;;;20.90;14.70;;;;;;;-0.76;85.96;98626.30;448002;1268;143061;-58
2022/01/20 02:52:28;;;;;;;23.60;15.30;;;;;;;-0.75;86.75;98595.19;448024;1267;141613;-58
2022/01/20 03:02:33;;;;;;;18.70;13.50;;;;;;;-0.77;87.03;98581.48;448055;1268;142083;-57
2022/01/20 03:12:39;;;;;;;16.30;12.40;;;;;;;-0.76;87.73;98560.15;440957;1268;143204;-57
2022/01/20 03:22:45;;;;;;;14.90;11.30;;;;;;;-0.70;87.72;98546.02;448051;1268;142092;-57
2022/01/20 03:32:52;;;;;;;15.20;12.40;;;;;;;-0.59;87.75;98531.04;447805;1268;142747;-57
2022/01/20 03:42:58;;;;;;;15.80;12.80;;;;;;;-0.51;87.94;98518.55;447221;1266;143499;-57
2022/01/20 03:53:04;;;;;;;14.60;11.20;;;;;;;-0.44;87.99;98521.91;448072;1268;141687;-58
2022/01/20 04:03:10;;;;;;;14.40;12.00;;;;;;;-0.40;88.07;98530.90;448051;1267;141675;-57
2022/01/20 04:13:17;;;;;;;12.60;10.70;;;;;;;-0.40;88.09;98516.62;446924;1267;142580;-56
2022/01/20 04:23:23;;;;;;;12.80;9.60;;;;;;;-0.37;88.12;98501.70;448051;1267;141644;-56
2022/01/20 04:33:29;;;;;;;14.20;10.10;;;;;;;-0.36;88.12;98504.43;437310;1267;143656;-55
2022/01/20 04:43:35;;;;;;;13.80;10.80;;;;;;;-0.34;88.57;98500.23;430687;1270;142299;-56
2022/01/20 05:04:05;;;;;;;9.00;7.80;;;;;;;-0.20;88.59;98509.89;429921;1268;142122;-56
2022/01/20 05:14:11;;;;;;;9.70;7.20;;;;;;;-0.12;88.47;98515.44;435510;1269;141761;-55
2022/01/20 05:24:17;;;;;;;7.40;6.70;;;;;;;-0.07;88.31;98516.09;431218;1270;143064;-56
2022/01/20 05:34:23;;;;;;;7.20;5.90;;;;;;;-0.03;88.21;98507.50;442125;1270;141582;-58
2022/01/20 05:44:28;;;;;;;7.70;5.90;;;;;;;0.00;87.96;98498.44;447795;1269;141565;-58
2022/01/20 05:54:35;;;;;;;6.20;4.60;;;;;;;-0.14;87.73;98480.75;447247;1267;142319;-57
2022/01/20 06:04:41;;;;;;;6.00;3.40;;;;;;;-0.24;87.27;98491.61;447981;1268;142025;-57
2022/01/20 06:14:47;;;;;;;3.20;1.50;;;;;;;-0.33;86.00;98512.23;442071;1268;142096;-57
2022/01/20 06:24:53;;;;;;;6.40;2.60;;;;;;;-0.47;84.97;98505.70;436861;1267;141828;-56
2022/01/20 06:34:59;;;;;;;2.70;1.70;;;;;;;-0.63;84.48;98503.17;433512;1268;143226;-56
2022/01/20 06:45:07;;;;;;;5.60;1.70;;;;;;;-0.74;83.93;98495.11;448031;1267;141573;-57
2022/01/20 06:55:14;;;;;;;4.90;1.30;;;;;;;-0.94;83.30;98501.46;447246;1267;142613;-57
2022/01/20 07:05:19;;;;;;;;;;;;;;;-1.05;83.25;98504.42;439084;1265;143783;-54
2022/01/20 07:15:25;;;;;;;6.50;2.70;;;;;;;-1.14;82.95;98502.67;441169;1268;129079;-55
2022/01/20 07:25:31;;;;;;;3.80;2.20;;;;;;;-1.03;83.28;98513.66;443024;1267;146635;-55
2022/01/20 07:35:37;;;;;;;4.70;1.90;;;;;;;0.34;83.12;98502.76;448049;1266;141740;-56
2022/01/20 07:45:43;;;;;;;7.20;2.70;;;;;;;1.99;81.16;98491.61;436333;1267;141169;-53
2022/01/20 07:55:50;;;;;;;3.50;2.70;;;;;;;4.66;79.19;98489.81;431148;1268;141947;-56
2022/01/20 08:05:55;;;;;;;6.50;2.40;;;;;;;5.72;75.65;98477.83;447880;1267;141242;-57
2022/01/20 08:16:01;;;;;;;6.30;1.90;;;;;;;4.03;74.49;98464.29;447184;1267;142071;-57
2022/01/20 08:26:07;;;;;;;5.30;2.20;;;;;;;2.47;75.36;98456.10;447992;1267;143563;-62
2022/01/20 08:36:13;;;;;;;6.90;1.30;;;;;;;1.63;76.14;98465.18;439008;1267;140396;-62
2022/01/20 08:46:21;;;;;;;1.20;0.60;;;;;;;-0.45;78.05;98536.05;446828;1267;142933;-63
2022/01/20 08:56:27;;;;;;;1.30;0.40;;;;;;;-2.14;80.97;98524.81;447711;1267;141040;-60
2022/01/20 09:06:33;;;;;;;3.00;1.30;;;;;;;-2.25;82.15;98517.23;447088;1267;141883;-62
2022/01/20 09:16:39;;;;;;;2.00;1.60;;;;;;;-1.95;82.76;98499.20;444228;1268;141689;-63
2022/01/20 09:26:45;;;;;;;5.90;1.10;;;;;;;-0.93;82.26;98496.13;437438;1265;141810;-65
2022/01/20 09:36:51;;;;;;;1.90;1.30;;;;;;;-1.48;81.59;98492.27;447121;1269;142240;-64
2022/01/20 09:46:57;;;;;;;1.50;1.20;;;;;;;-1.77;81.84;98476.55;447905;1266;141051;-63
2022/01/20 09:57:04;;;;;;;3.50;1.20;;;;;;;-1.50;82.08;98475.02;447958;1267;141373;-62
2022/01/20 10:07:10;;;;;;;;;;;;;;;-1.15;81.41;98462.88;447243;1267;197610;-63
2022/01/20 10:17:20;;;;;;;3.70;1.50;;;;;;;-0.97;80.96;98461.21;448183;1268;130435;-64
2022/01/20 10:27:26;;;;;;;4.00;1.70;;;;;;;-0.86;80.36;98463.58;445130;1266;141528;-63
2022/01/20 10:37:33;;;;;;;4.40;2.60;;;;;;;-1.11;80.36;98464.27;448005;1268;141124;-64
2022/01/20 10:47:39;;;;;;;5.20;1.90;;;;;;;-0.41;79.99;98461.27;444104;1267;143685;-61
2022/01/20 10:57:45;;;;;;;6.40;2.80;;;;;;;-0.47;79.05;98458.25;442683;1267;142885;-68
2022/01/20 11:07:52;;;;;;;5.40;2.10;;;;;;;-0.51;79.23;98463.70;447370;1267;141876;-70
2022/01/20 11:17:59;;;;;;;4.20;1.60;;;;;;;-0.36;78.63;98467.98;447908;1267;141465;-75
2022/01/20 11:28:07;;;;;;;;;;;;;;;-0.41;78.56;98469.70;438155;1267;141627;-63
2022/01/20 11:38:15;;;;;;;5.30;2.60;;;;;;;-0.50;78.27;98478.63;448161;1267;128025;-66
2022/01/20 11:48:24;;;;;;;4.30;1.90;;;;;;;-0.56;77.74;98480.58;444112;1267;142648;-58
2022/01/20 11:58:30;;;;;;;3.60;2.50;;;;;;;-0.05;77.91;98489.20;439236;1268;201226;-62
2022/01/20 12:08:36;;;;;;;5.10;2.60;;;;;;;-0.30;76.58;98495.10;447944;1267;141488;-63
2022/01/20 12:18:42;;;;;;;4.50;1.70;;;;;;;-0.55;76.70;98512.70;447089;1267;141630;-59
2022/01/20 12:28:48;;;;;;;4.80;2.10;;;;;;;-0.78;76.64;98521.55;447961;1266;140908;-62
2022/01/20 12:38:55;;;;;;;4.80;1.80;;;;;;;-0.61;76.30;98519.77;439695;1267;141820;-63
2022/01/20 12:49:04;;;;;;;2.80;0.90;;;;;;;-0.16;75.23;98502.69;446550;1268;142432;-64
2022/01/20 12:59:12;;;;;;;2.50;1.50;;;;;;;-0.13;74.05;98492.58;433842;1268;142261;-63
2022/01/20 13:09:43;;;;;;;8.40;2.30;;;;;;;-0.57;73.67;98512.92;430209;1268;141805;-64
2022/01/20 13:19:50;;;;;;;7.20;3.40;;;;;;;-1.07;74.47;98528.04;448020;1267;142034;-61
2022/01/20 13:29:56;;;;;;;6.00;3.50;;;;;;;-1.41;75.28;98536.86;445143;1268;141791;-63
2022/01/20 13:40:06;;;;;;;6.80;3.00;;;;;;;-1.61;75.45;98547.79;430153;1268;142388;-63
2022/01/20 13:50:18;;;;;;;4.60;2.00;;;;;;;-1.71;75.69;98549.61;430472;1268;141044;-60
2022/01/20 14:00:26;;;;;;;3.50;1.90;;;;;;;-1.86;75.91;98538.23;446993;1268;193652;-58
2022/01/20 14:10:32;;;;;;;7.00;3.20;;;;;;;-1.92;76.73;98533.44;447889;1268;145336;-62
2022/01/20 14:20:38;;;;;;;;;;;;;;;-1.99;77.05;98544.47;441992;1269;142885;-58
2022/01/20 14:30:44;;;;;;;6.90;2.30;;;;;;;-2.22;78.03;98561.40;430105;1268;127591;-61
2022/01/20 14:40:53;;;;;;;4.50;2.60;;;;;;;-2.43;79.71;98558.40;444246;1267;141087;-59
2022/01/20 14:50:59;;;;;;;8.30;3.70;;;;;;;-2.65;80.08;98573.70;430852;1268;141038;-60
2022/01/20 15:01:05;;;;;;;6.90;3.50;;;;;;;-3.06;80.27;98567.56;429932;1268;141301;-60
2022/01/20 15:11:11;;;;;;;7.70;3.30;;;;;;;-3.40;80.83;98585.98;430840;1268;141181;-62
2022/01/20 15:21:17;;;;;;;5.70;2.50;;;;;;;-3.19;81.53;98603.98;431405;1268;141008;-67
2022/01/20 15:31:23;;;;;;;7.20;3.50;;;;;;;-3.11;81.76;98609.46;431215;1268;141185;-59
2022/01/20 15:41:28;;;;;;;4.80;3.40;;;;;;;-3.34;81.99;98608.63;439461;1268;152028;-59
2022/01/20 15:51:34;;;;;;;4.20;2.50;;;;;;;-3.39;82.32;98630.11;447097;1267;143841;-59
2022/01/20 16:01:40;;;;;;;7.00;3.00;;;;;;;-3.17;82.36;98619.52;447913;1267;142131;-59
2022/01/20 16:11:47;;;;;;;7.70;2.80;;;;;;;-3.01;81.89;98622.23;447941;1268;142355;-64
2022/01/20 16:21:51;;;;;;;;;;;;;;;-2.88;81.87;98637.15;447019;1267;141760;-59
2022/01/20 16:31:57;;;;;;;7.20;4.00;;;;;;;-2.68;81.60;98645.23;447502;1269;128299;-60
2022/01/20 16:42:04;;;;;;;7.10;3.50;;;;;;;-2.52;81.20;98658.03;446819;1268;142427;-58
2022/01/20 16:52:11;;;;;;;11.40;3.00;;;;;;;-2.40;81.21;98658.07;431538;1269;141453;-59
2022/01/20 17:02:25;;;;;;;4.90;1.50;;;;;;;-2.41;81.43;98670.27;431835;1268;143149;-60
2022/01/20 17:12:31;;;;;;;5.50;1.70;;;;;;;-2.58;82.68;98693.48;443509;1268;143208;-59
2022/01/20 17:22:37;;;;;;;12.10;2.80;;;;;;;-2.74;83.71;98715.80;430910;1270;141540;-61
2022/01/20 17:32:41;;;;;;;;;;;;;;;-3.00;83.53;98719.46;440118;1268;146648;-60
2022/01/20 17:42:46;;;;;;;;;;;;;;;-3.15;83.18;98723.58;446815;1267;129178;-59
2022/01/20 17:52:51;;;;;;;;;;;;;;;-2.95;82.18;98740.61;431648;1268;129473;-63
2022/01/20 18:02:55;;;;;;;;;;;;;;;-2.98;81.29;98757.96;431848;1268;131761;-58
2022/01/20 18:12:59;;;;;;;;;;;;;;;-3.06;80.78;98769.79;437005;1268;127121;-59
2022/01/20 18:23:04;;;;;;;;;;;;;;;-3.01;80.44;98786.10;448116;1267;186360;-59
2022/01/20 18:33:08;;;;;;;;;;;;;;;-3.02;80.19;98799.48;448200;1267;128151;-59
2022/01/20 18:43:12;;;;;;;;;;;;;;;-3.17;79.94;98814.36;437893;1268;128139;-60
2022/01/20 18:53:16;;;;;;;;;;;;;;;-3.28;79.89;98836.64;447948;1269;128083;-59
2022/01/20 19:03:20;;;;;;;;;;;;;;;-3.26;80.17;98839.19;432053;1271;127845;-58
2022/01/20 19:13:27;;;;;;;;;;;;;;;-3.24;80.03;98838.97;430605;1271;138051;-59
2022/01/20 19:23:31;;;;;;;;;;;;;;;-3.13;80.17;98850.91;447962;1269;128119;-60
2022/01/20 19:33:35;;;;;;;;;;;;;;;-3.10;80.05;98864.05;447183;1270;128882;-58
2022/01/20 19:43:40;;;;;;;;;;;;;;;-3.31;79.99;98883.44;448086;1268;128347;-59
2022/01/20 19:53:44;;;;;;;;;;;;;;;-3.50;80.31;98897.66;435154;1267;128492;-58
2022/01/20 20:03:49;;;;;;;;;;;;;;;-3.72;80.57;98901.61;441369;1267;128685;-58
2022/01/20 20:13:54;;;;;;;;;;;;;;;-3.97;80.70;98906.45;435506;1269;128676;-60
2022/01/20 20:23:58;;;;;;;;;;;;;;;-4.19;80.99;98917.22;440671;1267;128952;-59
2022/01/20 20:34:02;;;;;;;;;;;;;;;-4.32;81.22;98927.49;447255;1269;129191;-59
2022/01/20 20:44:07;;;;;;;;;;;;;;;-4.45;81.42;98938.60;447956;1267;130433;-59
2022/01/20 20:54:12;;;;;;;;;;;;;;;-4.51;81.71;98944.48;448191;1267;127593;-59
2022/01/20 21:04:18;;;;;;;;;;;;;;;-4.57;81.89;98954.64;447413;1270;128417;-58
2022/01/20 21:14:37;;;;;;;;;;;;;;;-4.64;81.89;98965.84;448271;1267;129361;-58
2022/01/20 21:24:42;;;;;;;;;;;;;;;-4.69;82.00;98970.52;438829;1267;128076;-59
2022/01/20 21:34:47;;;;;;;;;;;;;;;-4.78;81.96;98976.23;437672;1267;129125;-58
2022/01/20 21:44:52;;;;;;;;;;;;;;;-4.90;82.00;98987.81;436497;1268;129092;-57
2022/01/20 21:54:57;;;;;;;;;;;;;;;-4.99;82.14;98997.64;438994;1268;132363;-59
2022/01/20 22:05:01;;;;;;;;;;;;;;;-5.16;82.18;99001.90;448203;1267;128508;-59
2022/01/20 22:15:06;;;;;;;;;;;;;;;-5.29;82.31;99014.30;448085;1269;128562;-58
2022/01/20 22:25:10;;;;;;;;;;;;;;;-5.34;82.45;99025.27;447586;1266;128115;-59
2022/01/20 22:35:14;;;;;;;;;;;;;;;-5.38;82.70;99033.16;445458;1267;128427;-58
2022/01/20 22:45:19;;;;;;;;;;;;;;;-5.41;82.86;99050.23;443167;1269;128288;-57
2022/01/20 22:55:23;;;;;;;;;;;;;;;-5.47;83.07;99052.66;446993;1269;127554;-59
2022/01/20 23:05:28;;;;;;;;;;;;;;;-5.55;83.21;99056.30;448060;1269;128383;-60
2022/01/20 23:15:34;;;;;;;;;;;;;;;-5.58;83.29;99077.64;447473;1267;127989;-69
2022/01/20 23:25:39;;;;;;;;;;;;;;;-5.61;83.34;99091.82;448311;1267;130214;-62
2022/01/20 23:35:43;;;;;;;;;;;;;;;-5.61;83.43;99105.80;447978;1269;128704;-61
2022/01/20 23:56:10;;;;;;;;;;;;;;;-5.74;83.57;99117.98;447795;1269;173106;-60
